createdAt,value
2017-05-14T00:19:24.911Z,1007
2017-05-14T00:29:34.797Z,1007
2017-05-14T00:39:44.676Z,1007.1
2017-05-14T00:49:54.633Z,1007
2017-05-14T01:00:04.608Z,1007.1
2017-05-14T01:10:14.599Z,1007.2
2017-05-14T01:20:24.540Z,1007.2
2017-05-14T01:30:34.510Z,1007.4
2017-05-14T01:40:44.480Z,1007.3
2017-05-14T01:50:54.553Z,1007.5
2017-05-14T02:01:04.486Z,1007.5
2017-05-14T02:11:14.508Z,1007.6
2017-05-14T02:21:24.524Z,1007.7
2017-05-14T02:31:34.556Z,1007.8
2017-05-14T02:41:44.674Z,1007.7
2017-05-14T02:51:54.821Z,1007.7
2017-05-14T03:02:04.995Z,1007.8
2017-05-14T03:12:15.130Z,1007.8
2017-05-14T03:22:25.323Z,1008
2017-05-14T03:32:35.538Z,1007.9
2017-05-14T03:42:45.799Z,1008.1
2017-05-14T03:52:56.035Z,1008.2
2017-05-14T04:03:06.481Z,1008.2
2017-05-14T04:13:16.466Z,1008.3
2017-05-14T04:23:26.589Z,1008.2
2017-05-14T04:33:36.643Z,1008.4
2017-05-14T04:43:46.492Z,1008.4
2017-05-14T04:53:56.205Z,1008.5
2017-05-14T05:04:05.792Z,1008.6
2017-05-14T05:14:15.256Z,1008.5
2017-05-14T05:24:24.617Z,1008.6
2017-05-14T05:34:33.807Z,1008.6
2017-05-14T05:44:42.846Z,1008.7
2017-05-14T05:54:51.711Z,1008.8
2017-05-14T06:05:00.376Z,1008.8
2017-05-14T06:15:08.916Z,1008.9
2017-05-14T06:25:17.406Z,1009.1
2017-05-14T06:35:25.837Z,1009.2
2017-05-14T06:45:34.207Z,1009.2
2017-05-14T06:55:42.488Z,1009.3
2017-05-14T07:05:50.772Z,1009.3
2017-05-14T07:15:58.829Z,1009.6
2017-05-14T07:26:06.847Z,1009.6
2017-05-14T07:36:14.979Z,1009.7
2017-05-14T07:46:23.159Z,1009.8
2017-05-14T07:56:31.140Z,1009.8
2017-05-14T08:06:38.902Z,1009.8
2017-05-14T08:16:46.498Z,1009.8
2017-05-14T08:26:53.987Z,1010
2017-05-14T08:37:01.530Z,1009.9
2017-05-14T08:47:09.119Z,1009.9
2017-05-14T08:57:16.886Z,1010
2017-05-14T09:07:24.453Z,1010.1
2017-05-14T09:17:31.839Z,1010
2017-05-14T09:27:39.220Z,1010
2017-05-14T09:37:46.585Z,1010.2
2017-05-14T09:47:53.908Z,1010.2
2017-05-14T09:58:01.227Z,1010.2
2017-05-14T10:08:08.496Z,1010.1
2017-05-14T10:18:15.825Z,1010.1
2017-05-14T10:28:23.561Z,1010.2
2017-05-14T10:38:31.479Z,1010.5
2017-05-14T10:48:39.222Z,1010.3
2017-05-14T10:58:46.741Z,1010.5
2017-05-14T11:08:54.047Z,1010.3
2017-05-14T11:19:01.551Z,1010.7
2017-05-14T11:29:08.972Z,1010.3
2017-05-14T11:39:16.262Z,1010.5
2017-05-14T11:49:23.474Z,1010.4
2017-05-14T11:59:30.767Z,1010.1
2017-05-14T12:09:38.411Z,1010.4
2017-05-14T12:19:46.586Z,1010.6
2017-05-14T12:20:03.391Z,1010.8
2017-05-14T12:20:19.232Z,1010.7
2017-05-14T12:20:34.148Z,1010.8
2017-05-14T12:21:16.950Z,1010.6
2017-05-14T12:21:48.291Z,1010.6
2017-05-14T12:22:58.480Z,1010.8
2017-05-14T12:23:26.879Z,1010.6
2017-05-14T12:32:46.357Z,1010.1
2017-05-14T12:33:06.505Z,1010.3
2017-05-14T12:33:25.308Z,1010.4
2017-05-14T12:33:47.935Z,1010.7
2017-05-14T12:37:33.675Z,1012.5
2017-05-14T12:47:42.043Z,1010.7
2017-05-14T12:57:50.079Z,1010.4
2017-05-14T13:07:57.870Z,1010.5
2017-05-14T13:18:05.697Z,1010.5
2017-05-14T13:28:13.710Z,1010.5
2017-05-14T13:38:21.784Z,1010.6
2017-05-14T13:48:29.567Z,1010.4
2017-05-14T13:58:36.864Z,1010.4
2017-05-14T14:08:44.244Z,1010.4
2017-05-14T14:18:51.794Z,1010.3
2017-05-14T14:28:59.684Z,1010.4
2017-05-14T14:39:07.274Z,1010.4
2017-05-14T14:49:15.085Z,1010.2
2017-05-14T14:59:22.846Z,1010.3
2017-05-14T15:09:30.735Z,1010.3
2017-05-14T15:19:38.520Z,1010.4
2017-05-14T15:29:46.451Z,1010.4
2017-05-14T15:39:54.518Z,1010.4
2017-05-14T15:50:02.640Z,1010.5
2017-05-14T16:00:10.787Z,1010.6
2017-05-14T16:10:18.705Z,1010.6
2017-05-14T16:20:26.845Z,1010.8
2017-05-14T16:30:35.227Z,1010.8
2017-05-14T16:40:43.675Z,1011.1
2017-05-14T16:50:52.193Z,1011.6
2017-05-14T17:01:00.914Z,1011.6
2017-05-14T17:11:09.715Z,1011.5
2017-05-14T17:21:18.526Z,1011.8
2017-05-14T17:31:27.524Z,1011.9
2017-05-14T17:41:36.472Z,1011.9
2017-05-14T17:51:45.088Z,1012.2
2017-05-14T18:01:53.638Z,1012
2017-05-14T18:12:02.192Z,1012.2
2017-05-14T18:22:10.895Z,1012.2
2017-05-14T18:32:19.794Z,1012.3
2017-05-14T18:42:28.872Z,1012.8
2017-05-14T18:52:38.054Z,1012.8
2017-05-14T19:02:47.252Z,1013.1
2017-05-14T19:12:56.541Z,1013.3
2017-05-14T19:23:05.972Z,1013.4
2017-05-14T19:33:15.527Z,1013.4
2017-05-14T19:43:25.168Z,1013.6
2017-05-14T19:53:34.863Z,1013.8
2017-05-14T20:03:44.584Z,1013.9
2017-05-14T20:13:54.327Z,1014
2017-05-14T20:24:04.062Z,1013.9
2017-05-14T20:34:13.815Z,1014.1
2017-05-14T20:44:23.624Z,1014.1
2017-05-14T20:54:33.453Z,1014.3
2017-05-14T21:04:43.300Z,1014.4
2017-05-14T21:14:53.186Z,1014.4
2017-05-14T21:25:03.087Z,1014.4
2017-05-14T21:35:13.016Z,1014.4
2017-05-14T21:45:23.025Z,1014.6
2017-05-14T21:55:33.071Z,1014.7
2017-05-14T22:05:43.084Z,1014.8
2017-05-14T22:15:53.143Z,1014.8
2017-05-14T22:26:03.212Z,1014.9
2017-05-14T22:36:13.275Z,1015.1
2017-05-14T22:46:23.415Z,1015.2
2017-05-14T22:56:33.540Z,1015.4
2017-05-14T23:06:43.708Z,1015.4
2017-05-14T23:16:53.884Z,1015.5
2017-05-14T23:27:04.081Z,1015.5
2017-05-14T23:37:14.293Z,1015.6
2017-05-14T23:47:24.487Z,1015.6
2017-05-14T23:57:34.761Z,1015.7
